createdAt,value
2022-12-15T06:34:43.559Z,7.72
2022-12-15T06:37:11.308Z,7.50
2022-12-15T06:39:38.906Z,7.35
2022-12-15T06:42:06.682Z,7.90
2022-12-15T06:44:34.402Z,8.75
2022-12-15T06:47:02.578Z,9.48
2022-12-15T06:49:30.542Z,8.98
2022-12-15T06:51:59.989Z,9.73
2022-12-15T06:54:28.761Z,9.85
2022-12-15T06:56:56.737Z,9.13
2022-12-15T06:59:24.711Z,9.70
2022-12-15T07:01:52.435Z,8.75
2022-12-15T07:04:20.561Z,8.88
2022-12-15T07:06:48.358Z,9.25
2022-12-15T07:09:17.403Z,8.77
2022-12-15T07:11:45.276Z,10.00
2022-12-15T07:14:13.014Z,9.90
2022-12-15T07:16:41.152Z,9.63
2022-12-15T07:19:10.570Z,9.05
2022-12-15T07:21:38.371Z,9.55
2022-12-15T07:24:07.048Z,9.52
2022-12-15T07:26:36.613Z,9.48
2022-12-15T07:29:04.377Z,11.20
2022-12-15T07:31:32.359Z,9.60
2022-12-15T07:34:00.367Z,10.40
2022-12-15T07:36:28.060Z,10.68
2022-12-15T07:38:58.157Z,10.77
2022-12-15T07:41:25.906Z,11.07
2022-12-15T07:43:55.064Z,11.15
2022-12-15T07:46:22.998Z,10.70
2022-12-15T07:48:51.201Z,10.85
2022-12-15T07:51:20.244Z,10.88
2022-12-15T07:53:48.430Z,10.65
2022-12-15T07:56:16.258Z,11.57
2022-12-15T07:58:44.028Z,11.55
2022-12-15T11:28:35.563Z,12.32
2022-12-15T11:31:22.975Z,12.98
2022-12-15T11:33:52.246Z,13.95
2022-12-15T11:36:39.321Z,13.25
2022-12-15T11:39:19.560Z,12.98
2022-12-15T11:41:56.697Z,12.23
2022-12-15T11:44:30.232Z,12.95
2022-12-15T11:47:10.006Z,12.52
2022-12-15T11:53:05.050Z,11.55
2022-12-15T11:55:44.862Z,13.40
2022-12-15T11:58:42.240Z,12.95
2022-12-15T12:01:25.338Z,13.85
2022-12-15T12:04:02.275Z,13.27
2022-12-15T12:06:37.200Z,14.32
2022-12-15T12:09:22.503Z,12.50
2022-12-15T12:11:56.585Z,14.45
2022-12-15T12:14:37.376Z,15.52
2022-12-15T12:17:11.465Z,15.73
2022-12-15T12:19:44.149Z,15.38
2022-12-15T12:22:24.618Z,16.48
2022-12-15T12:24:58.942Z,16.02
2022-12-15T12:27:33.746Z,15.02
2022-12-15T12:30:05.895Z,16.23
2022-12-15T12:32:44.021Z,16.23
2022-12-15T12:35:31.969Z,17.02
2022-12-15T12:38:04.020Z,16.42
2022-12-15T12:40:46.034Z,16.95
2022-12-15T12:43:30.946Z,16.73
2022-12-15T12:46:06.975Z,17.90
2022-12-15T12:48:41.501Z,18.95
2022-12-15T12:51:16.444Z,19.95
2022-12-15T12:53:44.234Z,15.98
2022-12-15T12:56:36.575Z,17.77
2022-12-15T12:59:06.438Z,17.20
2022-12-15T13:01:36.081Z,18.25
2022-12-15T13:04:11.516Z,19.35
2022-12-15T13:07:01.878Z,19.02
2022-12-15T13:09:43.799Z,21.30
2022-12-15T13:12:51.084Z,18.63
2022-12-15T13:15:34.234Z,20.45
2022-12-15T13:18:07.315Z,21.90
2022-12-15T13:20:38.283Z,22.25
2022-12-15T13:23:42.954Z,19.17
2022-12-15T13:26:15.123Z,18.27
2022-12-15T13:28:50.701Z,19.95
2022-12-15T13:31:43.889Z,18.60
2022-12-15T13:34:16.707Z,18.30
2022-12-15T13:36:56.811Z,19.08
2022-12-15T13:39:56.624Z,20.48
2022-12-15T13:42:53.208Z,17.20
2022-12-15T13:45:48.869Z,17.33
2022-12-15T13:48:32.942Z,17.10
2022-12-15T13:51:06.435Z,17.70
2022-12-15T13:53:43.542Z,16.00
2022-12-15T13:56:39.159Z,19.10
2022-12-15T13:59:18.799Z,17.58
2022-12-15T14:01:51.883Z,17.75
2022-12-15T14:04:21.399Z,18.27
2022-12-15T14:06:53.572Z,18.60
2022-12-15T14:09:27.841Z,17.27
2022-12-15T14:11:57.381Z,16.63
2022-12-15T14:14:27.802Z,17.33
2022-12-15T14:17:01.599Z,15.52
2022-12-15T14:19:38.762Z,16.27
2022-12-15T14:25:17.999Z,16.67
2022-12-15T14:27:50.714Z,15.18
2022-12-15T14:30:22.153Z,16.85
2022-12-15T14:33:00.019Z,16.58
2022-12-15T14:35:31.532Z,15.55
2022-12-15T14:38:02.828Z,16.10
2022-12-15T14:40:36.254Z,15.95
2022-12-15T14:45:32.906Z,14.35
2022-12-15T14:50:51.282Z,16.30
2022-12-15T14:53:21.071Z,15.93
2022-12-15T14:55:52.806Z,16.98
2022-12-15T14:58:29.838Z,17.15
2022-12-15T15:00:58.312Z,20.33
2022-12-15T15:03:34.279Z,19.58
2022-12-15T15:06:06.002Z,19.75
2022-12-15T15:08:37.017Z,18.98
2022-12-15T15:11:25.790Z,18.75
2022-12-15T15:13:56.101Z,19.65
2022-12-15T15:16:24.216Z,17.75
2022-12-15T15:18:55.247Z,17.20
2022-12-15T15:21:25.731Z,17.90
2022-12-15T15:24:01.123Z,17.65
2022-12-15T15:26:31.177Z,17.33
2022-12-15T15:28:59.150Z,17.95
2022-12-15T15:31:32.649Z,18.80
2022-12-15T15:34:04.947Z,18.83
2022-12-15T15:36:35.568Z,20.10
2022-12-15T15:39:12.954Z,20.25
2022-12-15T15:41:42.784Z,20.02
2022-12-15T15:44:13.129Z,18.48
2022-12-15T15:46:46.729Z,18.75
2022-12-15T15:49:16.806Z,24.20
2022-12-15T15:51:48.671Z,26.30
2022-12-15T15:54:20.933Z,27.38
2022-12-15T15:56:50.251Z,27.92
2022-12-15T15:59:20.747Z,32.92
2022-12-15T16:01:53.260Z,31.02
2022-12-15T16:04:21.482Z,31.67
2022-12-15T16:06:49.738Z,27.17
2022-12-15T16:09:17.674Z,24.65
2022-12-15T16:11:46.524Z,23.75
2022-12-15T16:14:18.013Z,27.90
2022-12-15T16:19:13.642Z,34.53
2022-12-15T16:21:43.033Z,24.73
2022-12-15T16:24:15.609Z,26.13
2022-12-15T16:26:48.159Z,22.77
2022-12-15T16:29:18.741Z,49.80
2022-12-15T16:31:46.920Z,43.92
2022-12-15T16:34:16.019Z,44.88
2022-12-15T16:36:44.474Z,49.22
2022-12-15T16:39:25.943Z,35.55
2022-12-15T16:41:55.591Z,34.05
2022-12-15T16:44:27.100Z,34.38
2022-12-15T16:46:55.330Z,36.05
2022-12-15T16:49:25.840Z,40.33
2022-12-15T16:51:53.964Z,36.63
2022-12-15T16:54:25.115Z,25.63
2022-12-15T16:56:53.215Z,18.40
2022-12-15T16:59:38.655Z,22.45
